Time;durP1;ratioP1;P1;durP2;ratioP2;P2;SDS_P1;SDS_P2;PMS_P1;PMS_P2;Temp;Humidity;BMP_temperature;BMP_pressure;BME280_temperature;BME280_humidity;BME280_pressure;Samples;Min_cycle;Max_cycle;Signal;HPM_P1;HPM_P2
2021/04/27 00:01:21;;;;;;;11.05;4.57;;;4.50;73.30;;;;;;5028764;28;20103;-50
2021/04/27 00:03:46;;;;;;;14.57;4.53;;;4.60;73.30;;;;;;4993127;28;20050;-50
2021/04/27 00:06:12;;;;;;;10.93;4.75;;;4.50;73.50;;;;;;4992058;28;20150;-50
2021/04/27 00:08:40;;;;;;;11.30;4.50;;;4.50;73.30;;;;;;4992118;28;20042;-49
2021/04/27 00:11:07;;;;;;;11.48;4.25;;;4.40;73.70;;;;;;4991442;28;20042;-49
2021/04/27 00:13:33;;;;;;;10.48;4.68;;;4.30;73.70;;;;;;4992003;28;20414;-49
2021/04/27 00:15:59;;;;;;;10.32;4.50;;;4.30;73.90;;;;;;4991898;28;20038;-51
2021/04/27 00:18:25;;;;;;;7.05;4.15;;;4.30;73.80;;;;;;4990872;28;20490;-51
2021/04/27 00:20:50;;;;;;;11.68;4.50;;;4.30;73.80;;;;;;4987065;28;20039;-49
2021/04/27 00:23:16;;;;;;;11.75;4.70;;;4.30;73.80;;;;;;4985908;28;20096;-52
2021/04/27 00:25:42;;;;;;;6.97;4.25;;;4.20;73.90;;;;;;4987225;28;20042;-51
2021/04/27 00:28:09;;;;;;;10.57;4.50;;;4.20;73.80;;;;;;4984844;28;20060;-52
2021/04/27 00:30:36;;;;;;;10.05;4.78;;;4.20;74.50;;;;;;4977762;28;20452;-51
2021/04/27 00:33:03;;;;;;;12.43;4.53;;;4.20;73.80;;;;;;4992146;28;20050;-49
2021/04/27 00:35:31;;;;;;;14.52;4.07;;;4.20;74.10;;;;;;4999711;28;20040;-50
2021/04/27 00:37:56;;;;;;;8.40;4.30;;;4.10;74.10;;;;;;4995892;28;20108;-49
2021/04/27 00:40:22;;;;;;;13.02;4.30;;;4.10;73.80;;;;;;4990961;28;20047;-49
2021/04/27 00:42:50;;;;;;;8.27;4.15;;;4.00;74.20;;;;;;4978071;28;20062;-50
2021/04/27 00:45:25;;;;;;;8.65;4.20;;;4.10;73.80;;;;;;5028016;28;20054;-49
2021/04/27 00:47:52;;;;;;;11.48;4.65;;;4.20;74.20;;;;;;4990769;28;20046;-49
2021/04/27 00:50:25;;;;;;;9.43;4.05;;;4.10;73.90;;;;;;4990713;28;20073;-52
2021/04/27 00:52:51;;;;;;;;;;;4.10;74.10;;;;;;5017160;28;20032;-52
2021/04/27 00:55:17;;;;;;;9.23;4.00;;;4.00;74.30;;;;;;4999220;28;20423;-49
2021/04/27 00:57:43;;;;;;;10.25;4.03;;;4.10;74.00;;;;;;4985950;28;20042;-52
2021/04/27 01:00:11;;;;;;;11.20;4.20;;;4.10;73.70;;;;;;4988801;28;20049;-53
2021/04/27 01:02:38;;;;;;;11.27;4.20;;;4.00;74.00;;;;;;5004410;28;20078;-49
2021/04/27 01:05:10;;;;;;;10.88;4.22;;;4.00;74.30;;;;;;5052881;28;20538;-49
2021/04/27 01:07:40;;;;;;;12.75;4.43;;;4.00;74.30;;;;;;5040418;28;21098;-49
2021/04/27 01:10:11;;;;;;;7.40;4.32;;;3.90;74.50;;;;;;5011051;28;20567;-52
2021/04/27 01:12:47;;;;;;;7.47;4.00;;;3.90;74.60;;;;;;4977061;28;20042;-50
2021/04/27 01:15:20;;;;;;;10.50;4.40;;;3.90;74.90;;;;;;4990157;28;20047;-51
2021/04/27 01:17:47;;;;;;;9.05;4.20;;;3.90;74.90;;;;;;4986570;28;20042;-52
2021/04/27 01:20:38;;;;;;;12.50;4.20;;;3.90;75.00;;;;;;4977202;28;20042;-49
2021/04/27 01:23:22;;;;;;;10.70;4.65;;;3.80;75.00;;;;;;4987878;28;20046;-52
2021/04/27 01:26:13;;;;;;;6.53;4.10;;;3.90;75.00;;;;;;4990127;28;20034;-50
2021/04/27 01:28:40;;;;;;;10.45;4.25;;;3.80;75.10;;;;;;4982495;28;20085;-48
2021/04/27 01:31:06;;;;;;;7.32;4.10;;;3.80;75.50;;;;;;4989380;28;20095;-49
2021/04/27 01:33:33;;;;;;;12.85;4.47;;;3.90;75.30;;;;;;4979730;28;20469;-52
2021/04/27 01:36:01;;;;;;;11.75;4.70;;;3.90;75.20;;;;;;4983779;28;20047;-52
2021/04/27 01:38:29;;;;;;;8.70;4.50;;;3.90;75.00;;;;;;4986002;28;20142;-51
2021/04/27 01:40:56;;;;;;;10.15;5.35;;;3.90;75.00;;;;;;4997147;28;20494;-49
2021/04/27 01:43:24;;;;;;;9.57;4.90;;;3.80;75.10;;;;;;4989530;28;20077;-49
2021/04/27 01:46:04;;;;;;;11.13;4.90;;;3.80;75.20;;;;;;4989836;28;20074;-49
2021/04/27 01:48:32;;;;;;;10.93;4.70;;;3.90;75.30;;;;;;5071067;28;20048;-52
2021/04/27 01:50:59;;;;;;;9.40;4.22;;;3.80;75.60;;;;;;5012590;28;20084;-50
2021/04/27 01:53:25;;;;;;;7.30;4.25;;;3.90;75.00;;;;;;4992658;28;20051;-53
2021/04/27 01:55:51;;;;;;;11.23;4.38;;;3.80;75.60;;;;;;4985965;28;20469;-51
2021/04/27 01:58:18;;;;;;;9.88;4.80;;;3.70;75.60;;;;;;4990134;28;20039;-51
2021/04/27 02:00:45;;;;;;;8.82;4.20;;;3.70;75.90;;;;;;4986116;28;20050;-51
2021/04/27 02:03:12;;;;;;;8.45;4.40;;;3.70;76.30;;;;;;5007902;28;20083;-52
2021/04/27 02:05:38;;;;;;;12.43;5.10;;;3.70;75.90;;;;;;4981672;28;20050;-50
2021/04/27 02:08:04;;;;;;;10.02;4.63;;;3.60;76.40;;;;;;4981419;28;20498;-49
2021/04/27 02:10:31;;;;;;;7.07;4.25;;;3.60;76.40;;;;;;5006456;28;20044;-50
2021/04/27 02:13:13;;;;;;;12.13;5.10;;;3.60;76.40;;;;;;4983152;28;20537;-51
2021/04/27 02:15:41;;;;;;;13.63;4.63;;;3.60;76.20;;;;;;5044346;28;20105;-51
2021/04/27 02:18:18;;;;;;;9.40;5.07;;;3.60;76.60;;;;;;4988889;28;20053;-50
2021/04/27 02:20:45;;;;;;;10.95;5.10;;;3.60;76.60;;;;;;5018113;28;20086;-49
2021/04/27 02:23:14;;;;;;;9.20;4.78;;;3.60;76.30;;;;;;4998631;28;20484;-54
2021/04/27 02:25:40;;;;;;;10.55;5.10;;;3.60;76.90;;;;;;5046685;28;20049;-51
2021/04/27 02:28:06;;;;;;;8.65;4.70;;;3.50;76.90;;;;;;5035778;28;20197;-50
2021/04/27 02:30:34;;;;;;;10.57;5.10;;;3.50;77.70;;;;;;4998466;28;20038;-50
2021/04/27 02:33:00;;;;;;;12.88;4.97;;;3.60;76.90;;;;;;4989032;28;20525;-53
2021/04/27 02:35:26;;;;;;;10.43;4.88;;;3.50;77.20;;;;;;4988313;28;20172;-53
2021/04/27 02:37:52;;;;;;;10.88;4.50;;;3.50;77.40;;;;;;4988597;28;20446;-48
2021/04/27 02:40:24;;;;;;;11.18;5.03;;;3.40;77.80;;;;;;4989116;28;20069;-49
2021/04/27 02:42:53;;;;;;;9.75;5.50;;;3.50;77.70;;;;;;4976047;28;20412;-50
2021/04/27 02:45:20;;;;;;;10.20;4.50;;;3.40;77.70;;;;;;5007443;28;20043;-49
2021/04/27 02:47:46;;;;;;;8.02;4.60;;;3.40;78.40;;;;;;4988215;28;20048;-50
2021/04/27 02:50:14;;;;;;;8.75;5.13;;;3.40;77.90;;;;;;4989212;28;20530;-50
2021/04/27 02:52:41;;;;;;;9.68;4.90;;;3.30;78.40;;;;;;4983968;28;20042;-50
2021/04/27 02:55:09;;;;;;;12.13;5.78;;;3.40;78.50;;;;;;4977617;28;20121;-49
2021/04/27 02:57:35;;;;;;;8.98;4.93;;;3.40;78.30;;;;;;4988326;28;20065;-54
2021/04/27 03:00:04;;;;;;;10.18;5.07;;;3.50;78.10;;;;;;4988537;28;20402;-49
2021/04/27 03:02:30;;;;;;;14.55;4.75;;;3.40;78.10;;;;;;4988333;28;20395;-49
2021/04/27 03:04:56;;;;;;;10.63;4.82;;;3.40;78.30;;;;;;4988655;28;20054;-50
2021/04/27 03:07:22;;;;;;;10.70;5.18;;;3.40;78.40;;;;;;4988543;28;20046;-51
2021/04/27 03:09:47;;;;;;;10.50;5.18;;;3.30;78.60;;;;;;4987419;28;20054;-49
2021/04/27 03:12:13;;;;;;;10.38;5.15;;;3.30;78.80;;;;;;4988159;28;20398;-52
2021/04/27 03:14:38;;;;;;;13.18;5.45;;;3.20;78.90;;;;;;4988796;28;20074;-50
2021/04/27 03:17:04;;;;;;;11.77;5.22;;;3.20;79.40;;;;;;4990628;28;20103;-51
2021/04/27 03:19:30;;;;;;;11.57;5.03;;;3.10;79.50;;;;;;4991922;28;20042;-50
2021/04/27 03:21:56;;;;;;;11.90;5.35;;;3.20;79.40;;;;;;5032387;28;20047;-49
2021/04/27 03:24:22;;;;;;;10.25;5.22;;;3.10;79.50;;;;;;4992291;28;20049;-50
2021/04/27 03:26:48;;;;;;;11.70;5.32;;;3.10;79.80;;;;;;4990006;28;20047;-52
2021/04/27 03:29:15;;;;;;;11.27;5.50;;;3.10;79.80;;;;;;4991850;28;20046;-50
2021/04/27 03:31:42;;;;;;;10.93;5.13;;;3.20;79.70;;;;;;4989913;28;20142;-50
2021/04/27 03:34:08;;;;;;;11.02;5.53;;;3.20;79.50;;;;;;4991618;28;20122;-53
2021/04/27 03:36:33;;;;;;;10.35;5.32;;;3.30;79.10;;;;;;4991690;28;20046;-52
2021/04/27 03:38:59;;;;;;;10.38;5.13;;;3.30;79.30;;;;;;4976287;28;20409;-49
2021/04/27 03:41:25;;;;;;;13.43;5.60;;;3.20;79.20;;;;;;4992105;28;20123;-52
2021/04/27 03:43:50;;;;;;;10.88;5.30;;;3.20;79.30;;;;;;4991150;28;20057;-51
2021/04/27 03:46:17;;;;;;;10.52;4.90;;;3.20;79.30;;;;;;4991690;28;20069;-50
2021/04/27 03:48:43;;;;;;;9.27;5.30;;;3.10;79.20;;;;;;4976350;28;20510;-53
2021/04/27 03:51:09;;;;;;;10.50;5.40;;;3.10;79.20;;;;;;5018319;28;20044;-49
2021/04/27 03:53:34;;;;;;;9.82;5.32;;;3.10;79.50;;;;;;5022885;28;20437;-52
2021/04/27 03:56:00;;;;;;;10.52;5.65;;;3.20;79.40;;;;;;4977490;28;20459;-51
2021/04/27 03:58:26;;;;;;;11.05;5.75;;;3.10;79.60;;;;;;4991306;28;20035;-49
2021/04/27 04:00:51;;;;;;;12.35;6.20;;;3.10;79.70;;;;;;4989650;28;20117;-50
2021/04/27 04:03:17;;;;;;;10.30;6.15;;;3.00;79.80;;;;;;4989610;28;20069;-52
2021/04/27 04:05:43;;;;;;;11.13;6.32;;;3.00;79.40;;;;;;5049187;28;20044;-48
2021/04/27 04:08:09;;;;;;;13.98;5.57;;;3.00;80.00;;;;;;5017883;28;20404;-50
2021/04/27 04:10:35;;;;;;;8.75;5.35;;;3.10;80.10;;;;;;5010068;28;20046;-48
2021/04/27 04:13:01;;;;;;;11.73;5.72;;;3.00;79.80;;;;;;4987993;28;20205;-53
2021/04/27 04:15:27;;;;;;;13.40;6.18;;;3.00;79.80;;;;;;4991071;28;20050;-49
2021/04/27 04:17:53;;;;;;;10.13;6.22;;;3.00;79.80;;;;;;4990198;28;20403;-52
2021/04/27 04:20:22;;;;;;;10.48;5.95;;;2.90;80.00;;;;;;4991207;28;20105;-49
2021/04/27 04:22:49;;;;;;;11.65;6.53;;;3.00;80.00;;;;;;4991163;28;20052;-49
2021/04/27 04:25:16;;;;;;;9.82;5.72;;;3.00;79.80;;;;;;5016233;28;20508;-51
2021/04/27 04:27:42;;;;;;;12.80;6.45;;;3.00;80.20;;;;;;5020896;28;20183;-49
2021/04/27 04:30:12;;;;;;;13.70;5.95;;;3.00;80.10;;;;;;4990264;28;20034;-51
2021/04/27 04:32:39;;;;;;;12.98;6.15;;;3.00;79.90;;;;;;4990594;28;20042;-50
2021/04/27 04:35:06;;;;;;;11.05;5.93;;;2.90;80.40;;;;;;5002232;28;20119;-53
2021/04/27 04:37:32;;;;;;;13.23;6.43;;;3.00;80.20;;;;;;5005200;28;20042;-49
2021/04/27 04:39:58;;;;;;;12.02;6.32;;;3.00;80.10;;;;;;4991901;28;20508;-50
2021/04/27 04:42:24;;;;;;;9.98;6.60;;;2.90;80.00;;;;;;4989305;28;20070;-51
2021/04/27 04:44:49;;;;;;;11.73;6.75;;;3.00;79.90;;;;;;5049253;28;20048;-51
2021/04/27 04:47:16;;;;;;;11.98;5.80;;;2.90;80.00;;;;;;5047062;28;20039;-51
2021/04/27 04:49:41;;;;;;;11.75;6.35;;;2.90;80.10;;;;;;4990992;28;20045;-53
2021/04/27 04:52:08;;;;;;;13.00;6.30;;;2.90;80.30;;;;;;4990649;28;20121;-51
2021/04/27 04:54:33;;;;;;;16.15;6.90;;;2.80;80.30;;;;;;4990921;28;20405;-52
2021/04/27 04:56:59;;;;;;;12.98;6.97;;;2.80;80.70;;;;;;4991516;28;20042;-50
2021/04/27 04:59:25;;;;;;;10.98;6.60;;;3.00;80.00;;;;;;4992875;28;20043;-50
2021/04/27 05:01:51;;;;;;;11.77;6.53;;;3.00;80.10;;;;;;5018517;28;20293;-53
2021/04/27 05:04:17;;;;;;;12.05;6.28;;;3.00;80.00;;;;;;4983870;28;20072;-51
2021/04/27 05:06:44;;;;;;;10.20;6.00;;;3.00;79.70;;;;;;4993778;28;20038;-51
2021/04/27 05:09:12;;;;;;;13.05;6.85;;;3.10;79.90;;;;;;5009828;28;20037;-53
2021/04/27 05:11:39;;;;;;;11.43;6.57;;;3.20;79.00;;;;;;4977890;28;20110;-52
2021/04/27 05:14:05;;;;;;;15.38;6.25;;;3.30;79.00;;;;;;4988617;28;20383;-50
2021/04/27 05:16:31;;;;;;;12.25;6.45;;;3.50;78.20;;;;;;4981820;28;20418;-48
2021/04/27 05:18:58;;;;;;;11.95;6.13;;;3.50;77.40;;;;;;4993039;28;20046;-50
2021/04/27 05:21:24;;;;;;;11.45;6.38;;;3.70;76.60;;;;;;4991311;28;20125;-52
2021/04/27 05:23:50;;;;;;;13.27;6.88;;;3.60;76.70;;;;;;4990986;28;20445;-50
2021/04/27 05:26:16;;;;;;;12.55;6.72;;;3.80;76.70;;;;;;4981779;28;20047;-50
2021/04/27 05:28:42;;;;;;;10.32;6.10;;;3.90;76.30;;;;;;4983667;28;20452;-48
2021/04/27 05:31:08;;;;;;;10.88;6.75;;;4.00;75.60;;;;;;4991886;28;20095;-52
2021/04/27 05:33:34;;;;;;;11.32;6.35;;;4.00;75.40;;;;;;4992109;28;20125;-54
2021/04/27 05:36:00;;;;;;;9.15;6.53;;;4.10;75.40;;;;;;5031956;28;20441;-49
2021/04/27 05:38:27;;;;;;;10.55;6.53;;;4.40;74.20;;;;;;5071451;28;20041;-52
2021/04/27 05:40:52;;;;;;;12.35;5.95;;;4.40;73.50;;;;;;5005453;28;20042;-50
2021/04/27 05:43:18;;;;;;;12.15;6.03;;;4.60;73.50;;;;;;4981350;28;20412;-53
2021/04/27 05:45:44;;;;;;;10.15;5.78;;;4.90;72.50;;;;;;4978235;28;20090;-48
2021/04/27 05:48:11;;;;;;;7.70;5.70;;;5.40;70.90;;;;;;4981051;28;20054;-49
2021/04/27 05:50:37;;;;;;;11.55;6.05;;;6.00;69.50;;;;;;4990174;28;20521;-50
2021/04/27 05:53:03;;;;;;;10.10;5.50;;;6.50;66.30;;;;;;4989975;28;20042;-50
2021/04/27 05:55:29;;;;;;;11.90;5.88;;;6.90;64.80;;;;;;4981697;28;20096;-53
2021/04/27 05:57:55;;;;;;;9.00;6.20;;;7.40;63.90;;;;;;4991204;28;20069;-51
2021/04/27 06:00:21;;;;;;;11.63;5.45;;;7.80;61.40;;;;;;5009405;28;20038;-52
2021/04/27 06:02:47;;;;;;;8.85;5.75;;;8.30;60.80;;;;;;4985910;28;20049;-53
2021/04/27 06:05:13;;;;;;;10.25;5.50;;;8.60;57.90;;;;;;4989560;28;20042;-52
2021/04/27 06:07:39;;;;;;;9.55;5.53;;;8.60;58.40;;;;;;4985806;28;20469;-52
2021/04/27 06:10:06;;;;;;;8.38;5.20;;;8.30;58.10;;;;;;4962897;28;20046;-51
2021/04/27 06:12:33;;;;;;;9.00;4.47;;;8.00;58.70;;;;;;4988724;28;20110;-51
2021/04/27 06:14:59;;;;;;;9.35;5.00;;;8.00;58.30;;;;;;4989364;28;20079;-50
2021/04/27 06:17:24;;;;;;;9.52;5.43;;;8.20;57.70;;;;;;4978498;28;20130;-53
2021/04/27 06:19:51;;;;;;;10.18;5.18;;;8.20;57.60;;;;;;4989440;28;20035;-51
2021/04/27 06:22:16;;;;;;;8.88;4.70;;;8.20;58.50;;;;;;4989778;28;20050;-50
2021/04/27 06:24:42;;;;;;;9.85;5.20;;;7.80;57.30;;;;;;4989995;28;20054;-50
2021/04/27 06:27:08;;;;;;;6.40;4.35;;;7.50;59.40;;;;;;4989819;28;20119;-52
2021/04/27 06:29:34;;;;;;;9.00;4.63;;;7.40;59.20;;;;;;4975846;28;20038;-49
2021/04/27 06:32:00;;;;;;;7.65;4.43;;;7.40;61.00;;;;;;5023210;28;20045;-49
2021/04/27 06:34:26;;;;;;;9.05;5.00;;;7.40;60.00;;;;;;5012438;28;20046;-54
2021/04/27 06:36:52;;;;;;;8.90;5.00;;;7.50;59.60;;;;;;4988904;28;20045;-49
2021/04/27 06:39:18;;;;;;;7.78;4.47;;;7.50;60.70;;;;;;4987363;28;20046;-52
2021/04/27 06:41:44;;;;;;;8.90;4.55;;;7.50;60.00;;;;;;4980571;28;20043;-53
2021/04/27 06:44:10;;;;;;;6.95;4.20;;;7.70;60.60;;;;;;4996569;28;20039;-50
2021/04/27 06:46:36;;;;;;;9.57;4.25;;;7.80;58.20;;;;;;4990900;28;20062;-49
2021/04/27 06:49:03;;;;;;;7.95;4.30;;;7.70;58.40;;;;;;4992981;28;20038;-50
2021/04/27 06:51:29;;;;;;;8.77;4.13;;;7.90;58.40;;;;;;4993972;28;20034;-49
2021/04/27 06:53:55;;;;;;;11.88;4.15;;;8.00;57.20;;;;;;4992402;28;20050;-50
2021/04/27 06:56:21;;;;;;;6.80;3.60;;;8.10;56.10;;;;;;4991025;28;20048;-51
2021/04/27 06:58:47;;;;;;;8.48;4.05;;;8.00;56.40;;;;;;4988712;28;20121;-52
2021/04/27 07:01:13;;;;;;;6.82;3.60;;;8.10;56.00;;;;;;4991818;28;20122;-50
2021/04/27 07:03:41;;;;;;;6.57;3.60;;;8.20;55.10;;;;;;4992519;28;20042;-51
2021/04/27 07:06:07;;;;;;;7.95;3.75;;;8.30;54.50;;;;;;4991515;28;20488;-53
2021/04/27 07:08:33;;;;;;;11.20;4.07;;;8.30;55.10;;;;;;4977740;28;20435;-52
2021/04/27 07:10:59;;;;;;;5.85;3.90;;;8.40;55.50;;;;;;4992786;28;20074;-51
2021/04/27 07:13:25;;;;;;;6.68;3.55;;;8.60;55.80;;;;;;4991738;28;20046;-51
2021/04/27 07:15:51;;;;;;;8.00;3.40;;;8.70;53.00;;;;;;4991804;28;20042;-49
2021/04/27 07:18:17;;;;;;;7.60;3.70;;;8.80;53.50;;;;;;4991634;28;20069;-50
2021/04/27 07:20:44;;;;;;;7.90;3.55;;;8.90;53.80;;;;;;4992451;28;20486;-52
2021/04/27 07:23:10;;;;;;;5.75;3.40;;;9.00;51.30;;;;;;4996052;28;20050;-50
2021/04/27 07:25:37;;;;;;;6.43;3.28;;;9.00;52.80;;;;;;4985099;28;20068;-51
2021/04/27 07:28:04;;;;;;;9.13;3.50;;;9.20;51.90;;;;;;4990498;28;20520;-50
2021/04/27 07:30:32;;;;;;;5.72;3.78;;;9.30;51.40;;;;;;4992019;28;20074;-52
2021/04/27 07:32:58;;;;;;;5.95;3.25;;;9.30;50.80;;;;;;4990976;28;20048;-52
2021/04/27 07:35:24;;;;;;;7.68;3.50;;;9.40;50.00;;;;;;4991677;28;20042;-51
2021/04/27 07:37:51;;;;;;;10.52;3.90;;;9.50;50.60;;;;;;4991297;28;20042;-51
2021/04/27 07:40:18;;;;;;;13.00;3.40;;;9.50;50.90;;;;;;4990856;28;20137;-54
2021/04/27 07:42:44;;;;;;;8.07;3.80;;;9.60;51.00;;;;;;4991362;28;20051;-52
2021/04/27 07:45:11;;;;;;;6.35;3.38;;;9.80;50.00;;;;;;4987106;28;20056;-50
2021/04/27 07:47:37;;;;;;;5.43;3.22;;;9.90;49.60;;;;;;4991116;28;20085;-51
2021/04/27 07:50:06;;;;;;;7.05;3.45;;;10.10;49.90;;;;;;4990999;28;20547;-52
2021/04/27 07:52:33;;;;;;;6.97;3.20;;;10.20;49.70;;;;;;4991037;28;20050;-51
2021/04/27 07:54:59;;;;;;;6.97;3.08;;;10.40;49.70;;;;;;4979502;28;20047;-51
2021/04/27 07:57:25;;;;;;;10.95;3.17;;;10.50;48.10;;;;;;5046815;28;20038;-52
2021/04/27 07:59:50;;;;;;;6.85;3.13;;;10.60;48.40;;;;;;4991475;28;20054;-49
2021/04/27 08:02:17;;;;;;;7.28;3.42;;;10.70;46.10;;;;;;4989870;28;20046;-51
2021/04/27 08:04:45;;;;;;;7.30;3.28;;;10.70;44.80;;;;;;4985707;28;20035;-49
2021/04/27 08:07:12;;;;;;;5.60;3.35;;;10.80;44.50;;;;;;5025084;28;20036;-51
2021/04/27 08:09:38;;;;;;;5.93;3.17;;;10.80;45.40;;;;;;5002338;28;20399;-52
2021/04/27 08:12:05;;;;;;;5.93;3.33;;;10.90;44.40;;;;;;4990895;28;20051;-52
2021/04/27 08:14:30;;;;;;;7.70;3.08;;;11.00;44.40;;;;;;4990597;28;20038;-50
2021/04/27 08:16:56;;;;;;;6.90;3.47;;;11.10;43.80;;;;;;4983884;28;20042;-49
2021/04/27 08:19:22;;;;;;;4.53;3.13;;;11.20;43.50;;;;;;4988959;28;20113;-51
2021/04/27 08:21:48;;;;;;;6.93;3.50;;;11.30;44.70;;;;;;4990898;28;20417;-51
2021/04/27 08:24:14;;;;;;;7.93;3.10;;;11.30;44.80;;;;;;4990426;28;20050;-53
2021/04/27 08:26:40;;;;;;;10.57;3.70;;;11.50;43.00;;;;;;4990868;28;20038;-53
2021/04/27 08:29:06;;;;;;;7.30;4.03;;;11.60;42.50;;;;;;4990073;28;20070;-53
2021/04/27 08:31:32;;;;;;;7.95;3.25;;;11.60;42.20;;;;;;4990614;28;20034;-52
2021/04/27 08:33:59;;;;;;;8.07;3.40;;;11.70;42.70;;;;;;5005612;28;20057;-50
2021/04/27 08:36:27;;;;;;;10.57;3.55;;;11.80;43.60;;;;;;4989306;28;20047;-48
2021/04/27 08:38:53;;;;;;;7.47;3.58;;;11.90;41.60;;;;;;5010860;28;20044;-51
2021/04/27 08:41:23;;;;;;;9.45;3.30;;;12.00;40.90;;;;;;4989227;28;20049;-48
2021/04/27 08:43:49;;;;;;;6.72;2.95;;;12.00;39.70;;;;;;5005442;28;20050;-52
2021/04/27 08:46:15;;;;;;;7.63;2.88;;;12.10;40.70;;;;;;4979789;28;20050;-52
2021/04/27 08:48:42;;;;;;;4.82;2.85;;;12.20;41.60;;;;;;5072511;28;20041;-49
2021/04/27 08:51:10;;;;;;;9.85;2.92;;;12.30;41.70;;;;;;5033481;28;20456;-52
2021/04/27 08:53:36;;;;;;;6.32;3.20;;;12.40;40.40;;;;;;4990668;28;20050;-52
2021/04/27 08:56:02;;;;;;;3.95;2.72;;;12.40;39.50;;;;;;4989021;28;20049;-52
2021/04/27 08:58:31;;;;;;;6.90;2.88;;;12.50;38.30;;;;;;5009405;28;20490;-55
2021/04/27 09:00:56;;;;;;;8.50;3.13;;;12.60;38.90;;;;;;4985791;28;20433;-53
2021/04/27 09:03:22;;;;;;;6.13;2.70;;;12.70;37.60;;;;;;4999886;28;20054;-53
2021/04/27 09:05:48;;;;;;;8.90;2.97;;;12.60;38.70;;;;;;4985687;28;20051;-53
2021/04/27 09:08:14;;;;;;;7.18;3.20;;;12.70;37.00;;;;;;4979253;28;20042;-53
2021/04/27 09:10:45;;;;;;;6.13;2.72;;;12.70;37.10;;;;;;4986230;28;20464;-52
2021/04/27 09:13:16;;;;;;;7.00;2.50;;;12.80;35.60;;;;;;4989844;28;20100;-51
2021/04/27 09:15:47;;;;;;;7.18;2.90;;;12.80;35.00;;;;;;4990280;28;20042;-54
2021/04/27 09:18:27;;;;;;;5.17;2.50;;;12.70;36.60;;;;;;4990341;28;20046;-52
2021/04/27 09:21:01;;;;;;;10.32;3.00;;;12.80;35.90;;;;;;4980361;28;20286;-55
2021/04/27 09:23:27;;;;;;;7.88;2.78;;;12.80;36.60;;;;;;4987307;28;20066;-52
2021/04/27 09:26:05;;;;;;;12.23;3.88;;;12.90;35.30;;;;;;4991629;28;20072;-54
2021/04/27 09:28:41;;;;;;;8.85;3.15;;;12.90;34.90;;;;;;4974098;28;20058;-53
2021/04/27 09:31:33;;;;;;;7.93;2.97;;;12.90;33.20;;;;;;4970064;28;20075;-52
2021/04/27 09:34:23;;;;;;;5.60;3.00;;;12.90;34.20;;;;;;4990315;28;20084;-52
2021/04/27 09:36:55;;;;;;;6.28;3.33;;;12.90;34.10;;;;;;4989599;28;20555;-52
2021/04/27 09:39:30;;;;;;;5.33;2.90;;;13.00;33.50;;;;;;4989934;28;20046;-49
2021/04/27 09:42:00;;;;;;;7.28;3.17;;;13.00;33.50;;;;;;4990931;28;20077;-54
2021/04/27 09:44:38;;;;;;;5.28;2.80;;;13.00;33.70;;;;;;5017707;28;20515;-51
2021/04/27 09:47:17;;;;;;;4.07;2.88;;;13.10;34.30;;;;;;4983998;28;20443;-54
2021/04/27 09:50:06;;;;;;;5.63;3.10;;;13.10;34.00;;;;;;5018477;28;20042;-52
2021/04/27 09:52:43;;;;;;;4.47;3.00;;;13.20;35.30;;;;;;4989778;28;20081;-53
2021/04/27 09:55:17;;;;;;;6.93;3.35;;;13.20;34.30;;;;;;4972585;28;20070;-51
2021/04/27 09:57:53;;;;;;;;;;;13.20;35.70;;;;;;4985751;28;20046;-51
2021/04/27 10:00:23;;;;;;;8.85;2.88;;;13.30;34.40;;;;;;4989174;28;19963;-49
2021/04/27 10:02:50;;;;;;;4.38;2.90;;;13.40;34.20;;;;;;4982620;28;20056;-53
2021/04/27 10:05:16;;;;;;;5.57;2.80;;;13.40;32.80;;;;;;4990276;28;20034;-51
2021/04/27 10:07:42;;;;;;;6.72;3.28;;;13.40;33.40;;;;;;4989246;28;20048;-51
2021/04/27 10:10:10;;;;;;;7.13;3.55;;;13.50;34.20;;;;;;4987074;28;20049;-54
2021/04/27 10:12:35;;;;;;;7.80;2.70;;;13.40;34.70;;;;;;4988895;28;20047;-50
2021/04/27 10:15:01;;;;;;;7.78;3.00;;;13.50;34.20;;;;;;4989146;28;20042;-54
2021/04/27 10:17:28;;;;;;;6.18;3.08;;;13.50;34.10;;;;;;4977531;28;20487;-50
2021/04/27 10:19:54;;;;;;;7.70;2.95;;;13.50;34.30;;;;;;4986922;28;20049;-51
2021/04/27 10:22:20;;;;;;;6.10;3.13;;;13.50;33.70;;;;;;4989409;28;20414;-52
2021/04/27 10:24:47;;;;;;;6.95;3.08;;;13.50;34.70;;;;;;4988296;28;20046;-54
2021/04/27 10:27:14;;;;;;;6.18;2.88;;;13.60;33.20;;;;;;4987301;28;20105;-54
2021/04/27 10:29:39;;;;;;;7.78;2.80;;;13.60;33.30;;;;;;4987724;28;20061;-54
2021/04/27 10:32:19;;;;;;;6.05;2.63;;;13.70;33.50;;;;;;4988947;28;20042;-54
2021/04/27 10:35:00;;;;;;;5.63;2.95;;;13.80;33.10;;;;;;4988556;28;20108;-55
2021/04/27 10:37:49;;;;;;;5.93;3.10;;;13.70;33.50;;;;;;4988681;28;20035;-54
2021/04/27 10:40:40;;;;;;;8.93;3.08;;;13.70;33.00;;;;;;4986410;28;20073;-55
2021/04/27 10:43:25;;;;;;;8.05;2.90;;;13.70;32.50;;;;;;4982698;28;20062;-52
2021/04/27 10:45:59;;;;;;;4.38;2.67;;;13.70;33.30;;;;;;4984949;28;20053;-54
2021/04/27 10:48:41;;;;;;;8.68;3.03;;;13.70;33.90;;;;;;4980909;28;20046;-51
2021/04/27 10:51:23;;;;;;;6.70;3.00;;;13.80;32.70;;;;;;4976179;28;20247;-53
2021/04/27 10:54:20;;;;;;;6.50;2.85;;;13.80;34.20;;;;;;4971930;28;20057;-55
2021/04/27 10:56:50;;;;;;;8.50;3.10;;;13.90;33.30;;;;;;4980770;28;20121;-52
2021/04/27 10:59:17;;;;;;;6.30;2.90;;;14.00;33.70;;;;;;4978782;28;20407;-53
2021/04/27 11:01:45;;;;;;;5.30;2.60;;;14.10;34.20;;;;;;4988317;28;20108;-51
2021/04/27 11:04:33;;;;;;;4.65;2.85;;;14.10;33.60;;;;;;4983777;28;20038;-51
2021/04/27 11:07:23;;;;;;;6.22;2.78;;;14.20;31.80;;;;;;4977101;28;20041;-51
2021/04/27 11:10:12;;;;;;;6.28;2.65;;;14.20;32.30;;;;;;4987363;28;20046;-52
2021/04/27 11:12:46;;;;;;;5.15;2.47;;;14.20;31.70;;;;;;4987418;28;20114;-54
2021/04/27 11:15:29;;;;;;;4.70;2.53;;;14.20;32.80;;;;;;4987564;28;20068;-54
2021/04/27 11:18:00;;;;;;;6.32;2.90;;;14.50;32.00;;;;;;4975323;28;20051;-54
2021/04/27 11:20:46;;;;;;;5.72;2.83;;;14.40;32.20;;;;;;4987406;28;20038;-52
2021/04/27 11:23:34;;;;;;;6.55;3.00;;;14.50;32.10;;;;;;4974474;28;20091;-50
2021/04/27 11:26:00;;;;;;;5.07;3.08;;;14.40;32.00;;;;;;4988477;28;20117;-53
2021/04/27 11:28:53;;;;;;;7.82;2.80;;;14.40;32.80;;;;;;4987730;28;20315;-51
2021/04/27 11:31:19;;;;;;;9.27;2.60;;;14.50;32.50;;;;;;4977976;28;20039;-54
2021/04/27 11:33:57;;;;;;;7.47;2.97;;;14.60;32.50;;;;;;4987355;28;20057;-52
2021/04/27 11:36:52;;;;;;;9.65;2.97;;;14.70;32.50;;;;;;4987978;28;20530;-52
2021/04/27 11:39:19;;;;;;;5.63;2.90;;;14.70;31.80;;;;;;4968789;28;20558;-55
2021/04/27 11:41:50;;;;;;;6.45;2.90;;;14.70;30.70;;;;;;4992137;28;20046;-52
2021/04/27 11:44:18;;;;;;;4.22;2.45;;;14.70;30.40;;;;;;4992361;28;20114;-53
2021/04/27 11:46:56;;;;;;;6.57;2.80;;;14.60;30.70;;;;;;4977620;28;20125;-52
2021/04/27 11:49:59;;;;;;;6.53;3.00;;;14.50;31.10;;;;;;4991379;28;20062;-54
2021/04/27 11:52:39;;;;;;;5.70;2.63;;;14.50;31.40;;;;;;5061772;28;20129;-54
2021/04/27 11:55:19;;;;;;;4.25;2.70;;;14.40;30.00;;;;;;4990645;28;20046;-51
2021/04/27 11:57:51;;;;;;;6.45;2.85;;;14.40;30.80;;;;;;4984494;28;20042;-51
2021/04/27 12:00:18;;;;;;;5.07;2.70;;;14.30;30.30;;;;;;4991725;28;20042;-54
2021/04/27 12:02:44;;;;;;;6.18;2.60;;;14.30;31.40;;;;;;4993195;28;20039;-52
2021/04/27 12:05:10;;;;;;;4.18;2.70;;;14.30;31.40;;;;;;4985215;28;20050;-54
2021/04/27 12:07:36;;;;;;;5.38;2.53;;;14.30;32.50;;;;;;4979091;28;20072;-51
2021/04/27 12:10:04;;;;;;;5.03;2.63;;;14.50;32.70;;;;;;4991589;28;20103;-52
2021/04/27 12:12:29;;;;;;;4.07;2.33;;;14.60;30.10;;;;;;4986614;28;20046;-54
2021/04/27 12:14:59;;;;;;;4.65;2.60;;;14.70;30.90;;;;;;4990693;28;20042;-50
2021/04/27 12:17:31;;;;;;;5.35;2.45;;;14.70;31.00;;;;;;4991644;28;20115;-51
2021/04/27 12:20:06;;;;;;;7.07;2.50;;;14.80;30.70;;;;;;4990841;28;20494;-54
2021/04/27 12:22:33;;;;;;;5.20;2.83;;;14.70;30.70;;;;;;4990256;28;20052;-54
2021/04/27 12:24:58;;;;;;;4.97;2.55;;;14.70;29.40;;;;;;4991006;28;20122;-53
2021/04/27 12:27:25;;;;;;;5.93;2.58;;;14.70;29.80;;;;;;4990966;28;20154;-54
2021/04/27 12:29:52;;;;;;;4.28;2.17;;;14.60;30.40;;;;;;4990621;28;20050;-51
2021/04/27 12:32:28;;;;;;;5.22;2.72;;;14.70;30.90;;;;;;4988975;28;20057;-53
2021/04/27 12:35:06;;;;;;;3.92;2.40;;;14.80;28.60;;;;;;4972698;28;20062;-53
2021/04/27 12:37:37;;;;;;;4.68;2.58;;;14.60;29.80;;;;;;4990205;28;20041;-50
2021/04/27 12:40:15;;;;;;;4.28;2.30;;;14.60;29.40;;;;;;4988820;28;20038;-49
2021/04/27 12:43:09;;;;;;;5.90;2.65;;;14.60;28.60;;;;;;4984362;28;20053;-54
2021/04/27 12:45:56;;;;;;;5.00;2.53;;;14.60;29.10;;;;;;4976360;28;20085;-52
2021/04/27 12:48:22;;;;;;;6.97;2.75;;;14.50;29.90;;;;;;4961674;28;20108;-54
2021/04/27 12:50:57;;;;;;;5.10;3.10;;;14.50;29.70;;;;;;4980878;28;20049;-52
2021/04/27 12:53:43;;;;;;;4.93;3.22;;;14.50;30.00;;;;;;4980315;28;20038;-52
2021/04/27 12:56:17;;;;;;;7.00;3.25;;;14.70;29.70;;;;;;4994198;28;20054;-52
2021/04/27 12:58:44;;;;;;;4.97;2.83;;;14.60;28.70;;;;;;4980597;28;20562;-52
2021/04/27 13:01:18;;;;;;;5.13;3.00;;;14.60;29.80;;;;;;4994400;28;20043;-50